MV Sea Wolf — WCW6738 — position and weather

sailwx.info

Track history (hours):
 
Tides and Currents Weather Stations Pressure Air Temp Water Temp Dewpoint Dewpoint Depression Visibility Wind Speed Wind Dir Waves Ship Positions

MV Sea Wolf

Owner: SEA WOLF MARINE TOWING & TRANSPORTATION, Bayonne, NJ. More information available from US FCC via Universal Licensing System and Coast Guard Vessel Documentation Center.

Last reported at 2016-Sep-28 03:33 UTC. Time now 2016-Sep-28 06:55 UTC.
Position N 40°41' W 074°05'.

Length 66 m; draft 10 m.

MMSI: 367002350.

Date/timePositionNaut miles runAvg speedWind from/ knotsBaromVisibWave heightAir tempDewpointWater temp
2016-Sep-28 03:33N 40°41' W 074°05'0 0.0
2016-Sep-28 02:33N 40°41' W 074°05'0 0.0
2016-Sep-28 01:33N 40°41' W 074°05'0 0.0
2016-Sep-27 23:33N 40°41' W 074°05'0 0.0
2016-Sep-27 19:33N 40°41' W 074°05'3 0.6
2016-Sep-27 14:33N 40°40' W 074°01'3 3.2
2016-Sep-27 13:33N 40°41' W 074°05'0 0.0
2016-Sep-27 10:33N 40°41' W 074°05'0 0.0
2016-Sep-27 00:33N 40°41' W 074°05'0 0.0
2016-Sep-26 20:33N 40°41' W 074°05'4 3.8
2016-Sep-26 19:33N 40°39' W 074°08'10 2.4
2016-Sep-26 15:33N 40°44' W 073°58'6 3.0
2016-Sep-26 13:33N 40°41' W 074°05'0 0.0
2016-Sep-26 11:33N 40°41' W 074°05'0 0.0
2016-Sep-26 08:33N 40°41' W 074°05'0 0.0
2016-Sep-26 02:34N 40°41' W 074°05'0 0.0
2016-Sep-26 01:34N 40°41' W 074°05'0 0.0
2016-Sep-26 00:33N 40°41' W 074°05'0 0.0
2016-Sep-25 21:34N 40°41' W 074°05'0 0.0
2016-Sep-25 17:34N 40°41' W 074°05'0 0.0
2016-Sep-25 16:33N 40°41' W 074°05'0 0.0
2016-Sep-25 15:34N 40°41' W 074°05'0 0.0
2016-Sep-25 14:34N 40°41' W 074°05'0 0.0
2016-Sep-25 12:33N 40°41' W 074°05'0 0.0
2016-Sep-25 11:33N 40°41' W 074°05'0 0.0
2016-Sep-25 10:33N 40°41' W 074°05'0 0.0
2016-Sep-25 09:33N 40°41' W 074°05'0 0.0
2016-Sep-25 07:33N 40°41' W 074°05'0 0.0
2016-Sep-25 04:33N 40°41' W 074°05'0 0.0
2016-Sep-25 00:33N 40°41' W 074°05'0 0.0
2016-Sep-24 22:33N 40°41' W 074°05'0 0.0
2016-Sep-24 21:33N 40°41' W 074°05'1 0.4
2016-Sep-24 19:33N 40°41' W 074°04'3 2.7
2016-Sep-24 18:33N 40°40' W 074°01'4 3.5
2016-Sep-24 17:33N 40°43' W 073°58'2 1.9
2016-Sep-24 16:33N 40°44' W 073°57'7 3.4
2016-Sep-24 14:33N 40°41' W 074°05'0 0.0
2016-Sep-24 12:33N 40°41' W 074°05'6 3.1
2016-Sep-24 10:33N 40°45' W 073°58'6 5.7
2016-Sep-24 09:32N 40°49' W 073°53'12 2.0
2016-Sep-24 03:34N 40°41' W 074°05'0 0.0
2016-Sep-24 02:33N 40°41' W 074°05'0 0.0
2016-Sep-24 01:34N 40°41' W 074°05'0 0.0
2016-Sep-24 00:34N 40°41' W 074°05'0 0.0
2016-Sep-23 19:34N 40°41' W 074°05'0 0.0
2016-Sep-23 17:34N 40°41' W 074°05'0 0.0
2016-Sep-23 16:34N 40°41' W 074°05'0 0.0
2016-Sep-23 15:34N 40°41' W 074°05'0 0.0
2016-Sep-23 13:34N 40°41' W 074°05'0 0.0
2016-Sep-23 09:34N 40°41' W 074°05'0 0.0
2016-Sep-23 06:34N 40°41' W 074°05'0 0.0
2016-Sep-23 04:34N 40°41' W 074°05'0 0.0
2016-Sep-23 03:34N 40°41' W 074°05'0 0.0
2016-Sep-23 02:34N 40°41' W 074°05'0 0.0
2016-Sep-23 01:34N 40°41' W 074°05'0 0.0
2016-Sep-23 00:34N 40°41' W 074°05'0 0.0
2016-Sep-22 23:33N 40°41' W 074°05'0 0.0
2016-Sep-22 20:34N 40°41' W 074°05'0 0.0
2016-Sep-22 12:34N 40°41' W 074°05'0 0.0
2016-Sep-22 04:33N 40°41' W 074°05'4 4.4
2016-Sep-22 03:33N 40°39' W 074°09'8 2.6
2016-Sep-22 00:34N 40°42' W 074°00'3 3.4
2016-Sep-21 23:34N 40°44' W 073°57'4 4.2
2016-Sep-21 22:34N 40°41' W 074°01'7 2.3
2016-Sep-21 19:33N 40°36' W 073°54'0 0.0
2016-Sep-21 16:33N 40°36' W 073°54'9 1.4
2016-Sep-21 09:33N 40°41' W 074°05'0 0.0
2016-Sep-21 08:33N 40°41' W 074°05'0 0.0
2016-Sep-21 05:33N 40°41' W 074°05'0 0.0
2016-Sep-21 03:33N 40°41' W 074°05'0 0.0
2016-Sep-21 02:33N 40°41' W 074°05'0 0.0
2016-Sep-20 17:33N 40°41' W 074°05'0 0.0
2016-Sep-20 14:33N 40°41' W 074°05'0 0.0
2016-Sep-20 13:33N 40°41' W 074°05'0 0.0
2016-Sep-20 10:33N 40°41' W 074°05'0 0.0
2016-Sep-20 08:33N 40°41' W 074°05'0 0.0
2016-Sep-20 07:33N 40°41' W 074°05'0 0.0
2016-Sep-20 06:33N 40°41' W 074°05'0 0.0
2016-Sep-20 02:33N 40°41' W 074°05'0 0.0
2016-Sep-19 23:33N 40°41' W 074°05'0 0.0
2016-Sep-19 19:33N 40°41' W 074°05'0 0.0
2016-Sep-19 18:33N 40°41' W 074°05'0 0.0
2016-Sep-19 16:33N 40°41' W 074°05'0 0.0
2016-Sep-19 14:33N 40°41' W 074°05'0 0.0
2016-Sep-19 13:33N 40°41' W 074°05'0 0.0
2016-Sep-19 12:33N 40°41' W 074°05'0 0.0
2016-Sep-19 11:33N 40°41' W 074°05'0 0.0
2016-Sep-19 09:33N 40°41' W 074°05'0 0.0
2016-Sep-19 07:33N 40°41' W 074°05'0 0.0
2016-Sep-19 06:33N 40°41' W 074°05'0 0.0
2016-Sep-19 03:33N 40°41' W 074°05'0 0.0
2016-Sep-19 02:33N 40°41' W 074°05'0 0.0
2016-Sep-19 00:33N 40°41' W 074°05'0 0.0
2016-Sep-18 19:33N 40°41' W 074°05'0 0.0
2016-Sep-18 15:33N 40°41' W 074°05'0 0.0
2016-Sep-18 14:33N 40°41' W 074°05'0 0.0
2016-Sep-18 10:33N 40°41' W 074°05'0 0.0
2016-Sep-18 09:33N 40°41' W 074°05'  
Track history (hours):
 
Tides and Currents Weather Stations Pressure Air Temp Water Temp Dewpoint Dewpoint Depression Visibility Wind Speed Wind Dir Waves Ship Positions

MV Sea Wolf

Owner: SEA WOLF MARINE TOWING & TRANSPORTATION, Bayonne, NJ. More information available from US FCC via Universal Licensing System and Coast Guard Vessel Documentation Center.

Last reported at 2016-Sep-28 03:33 UTC. Time now 2016-Sep-28 06:55 UTC.
Position N 40°41' W 074°05'.

Length 66 m; draft 10 m.

MMSI: 367002350.

Date/timePositionNaut miles runAvg speedWind from/ knotsBaromVisibWave heightAir tempDewpointWater temp
2016-Sep-28 03:33N 40°41' W 074°05'0 0.0
2016-Sep-28 02:33N 40°41' W 074°05'0 0.0
2016-Sep-28 01:33N 40°41' W 074°05'0 0.0
2016-Sep-27 23:33N 40°41' W 074°05'0 0.0
2016-Sep-27 19:33N 40°41' W 074°05'3 0.6
2016-Sep-27 14:33N 40°40' W 074°01'3 3.2
2016-Sep-27 13:33N 40°41' W 074°05'0 0.0
2016-Sep-27 10:33N 40°41' W 074°05'0 0.0
2016-Sep-27 00:33N 40°41' W 074°05'0 0.0
2016-Sep-26 20:33N 40°41' W 074°05'4 3.8
2016-Sep-26 19:33N 40°39' W 074°08'10 2.4
2016-Sep-26 15:33N 40°44' W 073°58'6 3.0
2016-Sep-26 13:33N 40°41' W 074°05'0 0.0
2016-Sep-26 11:33N 40°41' W 074°05'0 0.0
2016-Sep-26 08:33N 40°41' W 074°05'0 0.0
2016-Sep-26 02:34N 40°41' W 074°05'0 0.0
2016-Sep-26 01:34N 40°41' W 074°05'0 0.0
2016-Sep-26 00:33N 40°41' W 074°05'0 0.0
2016-Sep-25 21:34N 40°41' W 074°05'0 0.0
2016-Sep-25 17:34N 40°41' W 074°05'0 0.0
2016-Sep-25 16:33N 40°41' W 074°05'0 0.0
2016-Sep-25 15:34N 40°41' W 074°05'0 0.0
2016-Sep-25 14:34N 40°41' W 074°05'0 0.0
2016-Sep-25 12:33N 40°41' W 074°05'0 0.0
2016-Sep-25 11:33N 40°41' W 074°05'0 0.0
2016-Sep-25 10:33N 40°41' W 074°05'0 0.0
2016-Sep-25 09:33N 40°41' W 074°05'0 0.0
2016-Sep-25 07:33N 40°41' W 074°05'0 0.0
2016-Sep-25 04:33N 40°41' W 074°05'0 0.0
2016-Sep-25 00:33N 40°41' W 074°05'0 0.0
2016-Sep-24 22:33N 40°41' W 074°05'0 0.0
2016-Sep-24 21:33N 40°41' W 074°05'1 0.4
2016-Sep-24 19:33N 40°41' W 074°04'3 2.7
2016-Sep-24 18:33N 40°40' W 074°01'4 3.5
2016-Sep-24 17:33N 40°43' W 073°58'2 1.9
2016-Sep-24 16:33N 40°44' W 073°57'7 3.4
2016-Sep-24 14:33N 40°41' W 074°05'0 0.0
2016-Sep-24 12:33N 40°41' W 074°05'6 3.1
2016-Sep-24 10:33N 40°45' W 073°58'6 5.7
2016-Sep-24 09:32N 40°49' W 073°53'12 2.0
2016-Sep-24 03:34N 40°41' W 074°05'0 0.0
2016-Sep-24 02:33N 40°41' W 074°05'0 0.0
2016-Sep-24 01:34N 40°41' W 074°05'0 0.0
2016-Sep-24 00:34N 40°41' W 074°05'0 0.0
2016-Sep-23 19:34N 40°41' W 074°05'0 0.0
2016-Sep-23 17:34N 40°41' W 074°05'0 0.0
2016-Sep-23 16:34N 40°41' W 074°05'0 0.0
2016-Sep-23 15:34N 40°41' W 074°05'0 0.0
2016-Sep-23 13:34N 40°41' W 074°05'0 0.0
2016-Sep-23 09:34N 40°41' W 074°05'0 0.0
2016-Sep-23 06:34N 40°41' W 074°05'0 0.0
2016-Sep-23 04:34N 40°41' W 074°05'0 0.0
2016-Sep-23 03:34N 40°41' W 074°05'0 0.0
2016-Sep-23 02:34N 40°41' W 074°05'0 0.0
2016-Sep-23 01:34N 40°41' W 074°05'0 0.0
2016-Sep-23 00:34N 40°41' W 074°05'0 0.0
2016-Sep-22 23:33N 40°41' W 074°05'0 0.0
2016-Sep-22 20:34N 40°41' W 074°05'0 0.0
2016-Sep-22 12:34N 40°41' W 074°05'0 0.0
2016-Sep-22 04:33N 40°41' W 074°05'4 4.4
2016-Sep-22 03:33N 40°39' W 074°09'8 2.6
2016-Sep-22 00:34N 40°42' W 074°00'3 3.4
2016-Sep-21 23:34N 40°44' W 073°57'4 4.2
2016-Sep-21 22:34N 40°41' W 074°01'7 2.3
2016-Sep-21 19:33N 40°36' W 073°54'0 0.0
2016-Sep-21 16:33N 40°36' W 073°54'9 1.4
2016-Sep-21 09:33N 40°41' W 074°05'0 0.0
2016-Sep-21 08:33N 40°41' W 074°05'0 0.0
2016-Sep-21 05:33N 40°41' W 074°05'0 0.0
2016-Sep-21 03:33N 40°41' W 074°05'0 0.0
2016-Sep-21 02:33N 40°41' W 074°05'0 0.0
2016-Sep-20 17:33N 40°41' W 074°05'0 0.0
2016-Sep-20 14:33N 40°41' W 074°05'0 0.0
2016-Sep-20 13:33N 40°41' W 074°05'0 0.0
2016-Sep-20 10:33N 40°41' W 074°05'0 0.0
2016-Sep-20 08:33N 40°41' W 074°05'0 0.0
2016-Sep-20 07:33N 40°41' W 074°05'0 0.0
2016-Sep-20 06:33N 40°41' W 074°05'0 0.0
2016-Sep-20 02:33N 40°41' W 074°05'0 0.0
2016-Sep-19 23:33N 40°41' W 074°05'0 0.0
2016-Sep-19 19:33N 40°41' W 074°05'0 0.0
2016-Sep-19 18:33N 40°41' W 074°05'0 0.0
2016-Sep-19 16:33N 40°41' W 074°05'0 0.0
2016-Sep-19 14:33N 40°41' W 074°05'0 0.0
2016-Sep-19 13:33N 40°41' W 074°05'0 0.0
2016-Sep-19 12:33N 40°41' W 074°05'0 0.0
2016-Sep-19 11:33N 40°41' W 074°05'0 0.0
2016-Sep-19 09:33N 40°41' W 074°05'0 0.0
2016-Sep-19 07:33N 40°41' W 074°05'0 0.0
2016-Sep-19 06:33N 40°41' W 074°05'0 0.0
2016-Sep-19 03:33N 40°41' W 074°05'0 0.0
2016-Sep-19 02:33N 40°41' W 074°05'0 0.0
2016-Sep-19 00:33N 40°41' W 074°05'0 0.0
2016-Sep-18 19:33N 40°41' W 074°05'0 0.0
2016-Sep-18 15:33N 40°41' W 074°05'0 0.0
2016-Sep-18 14:33N 40°41' W 074°05'0 0.0
2016-Sep-18 10:33N 40°41' W 074°05'0 0.0
2016-Sep-18 09:33N 40°41' W 074°05'  

Dump ship's entire track history